createdAt,value
2023-05-06T00:00:58.810Z,100736.47
2023-05-06T00:04:01.044Z,100743.47
2023-05-06T00:07:02.962Z,100744.22
2023-05-06T00:10:05.280Z,100738.84
2023-05-06T00:13:08.227Z,100736.16
2023-05-06T00:16:10.094Z,100732.56
2023-05-06T00:19:12.403Z,100727.19
2023-05-06T00:22:14.172Z,100742.31
2023-05-06T00:25:16.016Z,100741.47
2023-05-06T00:28:17.861Z,100737.22
2023-05-06T00:31:19.633Z,100741.06
2023-05-06T00:34:21.338Z,100746.78
2023-05-06T00:37:23.302Z,100757.66
2023-05-06T00:40:25.075Z,100750.44
2023-05-06T00:43:26.853Z,100740.22
2023-05-06T00:46:28.670Z,100746.53
2023-05-06T00:49:31.115Z,100752.47
2023-05-06T00:52:32.940Z,100748.31
2023-05-06T00:55:35.557Z,100742.47
2023-05-06T00:58:37.592Z,100737.84
2023-05-06T01:01:39.424Z,100742.28
2023-05-06T01:04:41.554Z,100739.31
2023-05-06T01:08:01.906Z,100727.81
2023-05-06T01:11:24.883Z,100737.50
2023-05-06T01:14:38.657Z,100739.13
2023-05-06T01:17:46.599Z,100738.28
2023-05-06T01:20:50.989Z,100733.78
2023-05-06T01:23:58.292Z,100731.03
2023-05-06T01:27:00.338Z,100734.56
2023-05-06T01:30:02.651Z,100728.41
2023-05-06T01:33:09.690Z,100728.22
2023-05-06T01:36:20.820Z,100729.09
2023-05-06T01:39:26.907Z,100727.19
2023-05-06T01:42:29.594Z,100726.34
2023-05-06T01:45:32.004Z,100721.84
2023-05-06T01:48:36.574Z,100723.53
2023-05-06T01:51:38.724Z,100711.28
2023-05-06T01:54:40.827Z,100718.19
2023-05-06T01:57:42.668Z,100720.88
2023-05-06T02:00:44.567Z,100724.44
2023-05-06T02:03:46.625Z,100719.34
2023-05-06T02:06:48.540Z,100725.84
2023-05-06T02:09:50.726Z,100731.69
2023-05-06T02:12:52.686Z,100744.06
2023-05-06T02:15:54.828Z,100738.94
2023-05-06T02:18:57.818Z,100751.00
2023-05-06T02:21:59.701Z,100750.72
2023-05-06T02:25:01.613Z,100739.28
2023-05-06T02:28:03.641Z,100737.69
2023-05-06T02:31:05.918Z,100744.50
2023-05-06T02:34:08.880Z,100745.25
2023-05-06T02:37:10.816Z,100735.34
2023-05-06T02:40:12.728Z,100737.84
2023-05-06T02:43:14.662Z,100735.84
2023-05-06T02:46:16.684Z,100738.53
2023-05-06T02:49:18.611Z,100754.09
2023-05-06T02:52:20.969Z,100767.53
2023-05-06T02:55:22.690Z,100747.59
2023-05-06T02:58:24.610Z,100735.00
2023-05-06T03:01:26.542Z,100743.44
2023-05-06T03:04:28.607Z,100739.75
2023-05-06T03:07:31.095Z,100729.91
2023-05-06T03:10:32.957Z,100729.81
2023-05-06T03:13:34.873Z,100737.22
2023-05-06T03:16:36.732Z,100729.28
2023-05-06T03:19:38.540Z,100734.56
2023-05-06T03:22:42.256Z,100739.72
2023-05-06T03:25:44.304Z,100738.19
2023-05-06T03:28:46.164Z,100726.59
2023-05-06T03:31:51.045Z,100714.25
2023-05-06T03:34:52.940Z,100704.47
2023-05-06T03:37:55.083Z,100710.00
2023-05-06T03:40:56.861Z,100698.66
2023-05-06T03:43:58.853Z,100699.56
2023-05-06T03:47:00.633Z,100695.75
2023-05-06T03:50:02.900Z,100695.66
2023-05-06T03:53:04.769Z,100707.16
2023-05-06T03:56:07.070Z,100707.66
2023-05-06T03:59:08.990Z,100702.84
2023-05-06T04:02:10.754Z,100715.91
2023-05-06T04:05:12.853Z,100745.59
2023-05-06T04:08:14.852Z,100753.75
2023-05-06T04:11:16.598Z,100742.41
2023-05-06T04:14:18.364Z,100745.19
2023-05-06T04:17:20.461Z,100757.91
2023-05-06T04:20:22.217Z,100752.03
2023-05-06T04:23:24.023Z,100747.69
2023-05-06T04:26:25.806Z,100752.47
2023-05-06T04:29:27.740Z,100765.50
2023-05-06T04:32:29.686Z,100771.41
2023-05-06T04:35:31.908Z,100753.16
2023-05-06T04:38:33.946Z,100743.16
2023-05-06T04:41:35.706Z,100753.09
2023-05-06T04:44:37.465Z,100746.31
2023-05-06T04:47:39.290Z,100737.03
2023-05-06T04:50:41.197Z,100741.87
2023-05-06T04:53:43.189Z,100746.16
2023-05-06T04:56:44.957Z,100757.97
2023-05-06T04:59:47.966Z,100758.47
2023-05-06T05:02:49.882Z,100766.34
2023-05-06T05:05:52.036Z,100767.47
2023-05-06T05:08:55.327Z,100772.19
2023-05-06T05:11:57.474Z,100771.81
2023-05-06T05:14:59.215Z,100763.81
2023-05-06T05:18:01.060Z,100775.34
2023-05-06T05:21:03.881Z,100775.63
2023-05-06T05:24:06.217Z,100764.81
2023-05-06T05:27:07.946Z,100761.12
2023-05-06T05:30:12.687Z,100760.97
2023-05-06T05:33:15.277Z,100770.44
2023-05-06T05:36:17.380Z,100753.53
2023-05-06T05:39:19.197Z,100743.91
2023-05-06T05:42:21.056Z,100743.28
2023-05-06T05:45:22.802Z,100742.97
2023-05-06T05:48:24.873Z,100728.75
2023-05-06T05:51:27.004Z,100715.81
2023-05-06T05:54:28.946Z,100713.69
2023-05-06T05:57:30.890Z,100709.84
2023-05-06T06:00:33.934Z,100697.47
2023-05-06T06:03:36.232Z,100687.22
2023-05-06T06:06:38.332Z,100682.97
2023-05-06T06:09:40.179Z,100682.44
2023-05-06T06:12:44.144Z,100663.19
2023-05-06T06:15:46.506Z,100647.59
2023-05-06T06:18:48.293Z,100653.91
2023-05-06T06:21:50.389Z,100643.66
2023-05-06T06:24:53.871Z,100646.66
2023-05-06T06:27:56.687Z,100641.22
2023-05-06T06:30:58.562Z,100651.69
2023-05-06T06:34:00.973Z,100643.53
2023-05-06T06:37:02.817Z,100642.97
2023-05-06T06:40:05.185Z,100643.81
2023-05-06T06:43:07.192Z,100636.06
2023-05-06T06:46:08.946Z,100628.25
2023-05-06T06:49:10.866Z,100625.69
2023-05-06T06:52:12.981Z,100640.53
2023-05-06T06:55:14.925Z,100626.97
2023-05-06T06:58:16.739Z,100615.81
2023-05-06T07:01:18.914Z,100621.22
2023-05-06T07:04:20.987Z,100616.50
2023-05-06T07:07:22.825Z,100621.81
2023-05-06T07:10:24.678Z,100622.81
2023-05-06T07:13:26.780Z,100610.66
2023-05-06T07:16:28.895Z,100604.78
2023-05-06T07:19:31.666Z,100602.84
2023-05-06T07:22:33.486Z,100603.72
2023-05-06T07:25:35.598Z,100591.34
2023-05-06T07:28:37.434Z,100601.06
2023-05-06T07:31:39.409Z,100594.88
2023-05-06T07:34:41.208Z,100586.19
2023-05-06T07:37:43.004Z,100579.91
2023-05-06T07:40:44.917Z,100587.75
2023-05-06T07:43:47.028Z,100562.81
2023-05-06T07:46:49.636Z,100571.22
2023-05-06T07:49:51.755Z,100549.81
2023-05-06T07:52:53.623Z,100575.84
2023-05-06T07:56:01.743Z,100589.66
2023-05-06T07:59:03.711Z,100574.06
2023-05-06T08:02:06.141Z,100583.69
2023-05-06T08:05:08.928Z,100587.88
2023-05-06T08:08:11.049Z,100566.53
2023-05-06T08:11:13.052Z,100570.19
2023-05-06T08:14:17.325Z,100569.63
2023-05-06T08:17:19.412Z,100563.06
2023-05-06T08:20:21.823Z,100576.09
2023-05-06T08:23:23.738Z,100583.41
2023-05-06T08:26:25.616Z,100568.00
2023-05-06T08:29:27.643Z,100562.41
2023-05-06T08:32:29.406Z,100561.22
2023-05-06T08:35:31.269Z,100556.25
2023-05-06T08:38:40.520Z,100562.16
2023-05-06T08:41:49.726Z,100552.63
2023-05-06T08:44:53.433Z,100541.16
2023-05-06T08:47:55.761Z,100558.09
2023-05-06T08:50:59.334Z,100535.09
2023-05-06T08:54:03.622Z,100541.31
2023-05-06T08:57:09.112Z,100524.53
2023-05-06T09:00:12.981Z,100529.41
2023-05-06T09:03:15.654Z,100569.84
2023-05-06T09:06:18.741Z,100533.47
2023-05-06T09:09:25.221Z,100552.63
2023-05-06T09:12:27.636Z,100533.22
2023-05-06T09:15:42.595Z,100534.47
2023-05-06T09:18:45.676Z,100519.25
2023-05-06T09:21:51.656Z,100502.78
2023-05-06T09:24:58.537Z,100502.78
2023-05-06T09:28:08.478Z,100504.97
2023-05-06T09:31:19.778Z,100485.25
2023-05-06T09:34:25.596Z,100485.97
2023-05-06T09:37:32.169Z,100472.72
2023-05-06T09:40:38.572Z,100462.97
2023-05-06T09:43:45.340Z,100466.19
2023-05-06T09:46:47.616Z,100460.63
2023-05-06T09:49:50.233Z,100426.47
2023-05-06T09:52:55.182Z,100443.41
2023-05-06T09:55:58.826Z,100431.41
2023-05-06T09:59:04.404Z,100415.03
2023-05-06T10:02:06.998Z,100422.03
2023-05-06T10:05:10.892Z,100401.53
2023-05-06T10:08:18.404Z,100395.06
2023-05-06T10:11:21.829Z,100408.47
2023-05-06T10:14:25.985Z,100391.12
2023-05-06T10:17:29.532Z,100410.34
2023-05-06T10:20:34.871Z,100396.37
2023-05-06T10:23:45.781Z,100394.06
2023-05-06T10:26:49.336Z,100398.78
2023-05-06T10:29:55.040Z,100406.09
2023-05-06T10:33:05.003Z,100404.75
2023-05-06T10:36:23.936Z,100398.47
2023-05-06T10:39:28.553Z,100412.31
2023-05-06T10:42:35.779Z,100408.47
2023-05-06T10:46:02.415Z,100409.72
2023-05-06T10:49:04.953Z,100427.22
2023-05-06T10:52:14.969Z,100407.63
2023-05-06T10:55:36.525Z,100399.78
2023-05-06T10:58:38.903Z,100396.72
2023-05-06T11:01:43.454Z,100395.03
2023-05-06T11:04:52.099Z,100389.47
2023-05-06T11:08:09.229Z,100387.50
2023-05-06T11:11:49.594Z,100394.50
2023-05-06T11:14:52.084Z,100395.63
2023-05-06T11:17:55.923Z,100385.56
2023-05-06T11:21:01.905Z,100393.53
2023-05-06T11:24:04.535Z,100399.06
2023-05-06T11:27:07.749Z,100396.09
2023-05-06T11:30:15.101Z,100413.87
2023-05-06T11:33:19.551Z,100398.91
2023-05-06T11:36:22.049Z,100409.53
2023-05-06T11:39:26.007Z,100428.09
2023-05-06T11:42:29.483Z,100426.03
2023-05-06T11:45:44.434Z,100440.34
2023-05-06T11:48:46.818Z,100442.19
2023-05-06T11:51:49.741Z,100424.56
2023-05-06T11:54:53.896Z,100443.44
2023-05-06T11:57:55.682Z,100449.97
2023-05-06T12:00:59.272Z,100448.31
2023-05-06T12:04:02.230Z,100460.09
2023-05-06T12:07:05.995Z,100454.78
2023-05-06T12:10:08.640Z,100455.03
2023-05-06T12:13:11.028Z,100459.53
2023-05-06T12:16:13.144Z,100460.44
2023-05-06T12:19:18.692Z,100465.66
2023-05-06T12:22:22.440Z,100467.72
2023-05-06T12:25:24.954Z,100466.78
2023-05-06T12:28:27.398Z,100466.63
2023-05-06T12:31:29.237Z,100470.56
2023-05-06T12:34:41.070Z,100470.97
2023-05-06T12:37:47.375Z,100475.09
2023-05-06T12:40:54.005Z,100491.50
2023-05-06T12:43:55.836Z,100495.13
2023-05-06T12:46:58.263Z,100493.06
2023-05-06T12:50:00.982Z,100504.87
2023-05-06T12:53:04.311Z,100510.31
2023-05-06T12:56:06.281Z,100528.53
2023-05-06T12:59:08.806Z,100539.06
2023-05-06T13:02:11.135Z,100519.97
2023-05-06T13:05:14.320Z,100526.59
2023-05-06T13:08:16.202Z,100538.00
2023-05-06T13:11:18.130Z,100539.19
2023-05-06T13:14:20.080Z,100520.69
2023-05-06T13:17:22.029Z,100544.41
2023-05-06T13:20:23.829Z,100563.44
2023-05-06T13:23:25.610Z,100563.44
2023-05-06T13:26:27.546Z,100570.56
2023-05-06T13:29:29.844Z,100571.78
2023-05-06T13:32:32.578Z,100576.47
2023-05-06T13:35:34.912Z,100584.34
2023-05-06T13:38:40.915Z,100588.81
2023-05-06T13:41:43.416Z,100591.00
2023-05-06T13:44:46.199Z,100615.25
2023-05-06T13:47:48.309Z,100619.53
2023-05-06T13:50:50.776Z,100608.00
2023-05-06T13:53:53.383Z,100603.31
2023-05-06T13:56:56.438Z,100593.91
2023-05-06T13:59:58.480Z,100610.22
2023-05-06T14:03:00.742Z,100632.69
2023-05-06T14:06:03.398Z,100617.94
2023-05-06T14:09:05.510Z,100592.53
2023-05-06T14:12:07.497Z,100592.25
2023-05-06T14:15:10.596Z,100586.66
2023-05-06T14:18:12.532Z,100576.53
2023-05-06T14:21:15.244Z,100571.25
2023-05-06T14:24:17.200Z,100610.66
2023-05-06T14:27:19.015Z,100613.75
2023-05-06T14:30:21.554Z,100609.56
2023-05-06T14:33:23.581Z,100594.53
2023-05-06T14:36:25.470Z,100606.56
2023-05-06T14:39:27.448Z,100597.84
2023-05-06T14:42:29.396Z,100578.59
2023-05-06T14:45:31.389Z,100561.81
2023-05-06T14:48:33.395Z,100568.53
2023-05-06T14:51:35.230Z,100562.28
2023-05-06T14:54:42.223Z,100566.66
2023-05-06T14:57:44.291Z,100551.72
2023-05-06T15:00:46.210Z,100548.59
2023-05-06T15:03:48.123Z,100541.91
2023-05-06T15:06:49.859Z,100532.72
2023-05-06T15:09:52.421Z,100540.91
2023-05-06T15:12:54.354Z,100540.66
2023-05-06T15:15:56.073Z,100526.09
2023-05-06T15:18:57.815Z,100520.78
2023-05-06T15:22:00.054Z,100518.19
2023-05-06T15:25:03.217Z,100516.13
2023-05-06T15:28:05.606Z,100506.53
2023-05-06T15:31:08.406Z,100521.87
2023-05-06T15:34:11.316Z,100519.78
2023-05-06T15:37:15.829Z,100524.22
2023-05-06T15:40:17.725Z,100521.25
2023-05-06T15:43:23.655Z,100524.13
2023-05-06T15:46:27.357Z,100510.09
2023-05-06T15:49:47.458Z,100514.25
2023-05-06T15:52:52.603Z,100506.53
2023-05-06T15:56:01.295Z,100494.66
2023-05-06T15:59:09.482Z,100513.31
2023-05-06T16:05:16.077Z,100517.88
2023-05-06T16:08:17.868Z,100495.59
2023-05-06T16:11:19.707Z,100501.91
2023-05-06T16:14:21.552Z,100502.75
2023-05-06T16:17:23.330Z,100496.16
2023-05-06T16:20:25.130Z,100494.91
2023-05-06T16:23:26.895Z,100498.16
2023-05-06T16:26:28.603Z,100509.44
2023-05-06T16:29:30.369Z,100511.72
2023-05-06T16:32:32.749Z,100509.28
2023-05-06T16:35:34.500Z,100512.84
2023-05-06T16:38:36.655Z,100508.72
2023-05-06T16:41:38.568Z,100519.91
2023-05-06T16:44:40.629Z,100521.06
2023-05-06T16:47:44.094Z,100517.38
2023-05-06T16:50:46.212Z,100524.22
2023-05-06T16:53:48.264Z,100522.94
2023-05-06T16:56:52.648Z,100518.78
2023-05-06T16:59:54.804Z,100515.78
2023-05-06T17:02:56.843Z,100524.50
2023-05-06T17:05:58.763Z,100522.66
2023-05-06T17:09:00.498Z,100498.78
2023-05-06T17:12:02.424Z,100511.63
2023-05-06T17:15:05.281Z,100506.38
2023-05-06T17:18:07.206Z,100507.09
2023-05-06T17:21:09.062Z,100505.66
2023-05-06T17:24:10.836Z,100510.66
2023-05-06T17:27:12.719Z,100513.97
2023-05-06T17:30:15.102Z,100507.69
2023-05-06T17:33:17.029Z,100508.41
2023-05-06T17:36:19.415Z,100503.09
2023-05-06T17:39:21.357Z,100498.97
2023-05-06T17:42:23.213Z,100494.94
2023-05-06T17:45:26.772Z,100495.50
2023-05-06T17:48:28.519Z,100490.94
2023-05-06T17:51:30.296Z,100505.50
2023-05-06T17:54:36.400Z,100495.50
2023-05-06T17:57:38.204Z,100505.06
2023-05-06T18:00:40.249Z,100502.09
2023-05-06T18:03:43.896Z,100514.66
2023-05-06T18:06:46.562Z,100507.53
2023-05-06T18:09:51.973Z,100515.78
2023-05-06T18:12:55.526Z,100509.78
2023-05-06T18:15:57.454Z,100522.91
2023-05-06T18:19:02.549Z,100522.63
2023-05-06T18:22:04.515Z,100529.19
2023-05-06T18:25:07.227Z,100527.88
2023-05-06T18:28:09.337Z,100525.91
2023-05-06T18:31:11.212Z,100535.44
2023-05-06T18:34:13.355Z,100543.00
2023-05-06T18:37:15.118Z,100540.12
2023-05-06T18:40:17.858Z,100536.00
2023-05-06T18:43:19.701Z,100528.28
2023-05-06T18:46:21.524Z,100517.03
2023-05-06T18:49:23.694Z,100523.22
2023-05-06T18:52:25.682Z,100527.63
2023-05-06T18:55:27.902Z,100534.44
2023-05-06T18:58:29.897Z,100553.41
2023-05-06T19:01:31.840Z,100543.31
2023-05-06T19:04:33.844Z,100545.69
2023-05-06T19:07:35.873Z,100542.53
2023-05-06T19:10:38.242Z,100543.84
2023-05-06T19:13:40.801Z,100553.56
2023-05-06T19:16:42.764Z,100557.00
2023-05-06T19:19:46.980Z,100550.59
2023-05-06T19:22:48.905Z,100558.25
2023-05-06T19:25:50.826Z,100549.28
2023-05-06T19:28:52.632Z,100548.69
2023-05-06T19:31:54.694Z,100561.78
2023-05-06T19:34:56.851Z,100568.22
2023-05-06T19:37:58.877Z,100570.75
2023-05-06T19:41:01.141Z,100569.19
2023-05-06T19:44:03.019Z,100570.41
2023-05-06T19:47:04.958Z,100579.37
2023-05-06T19:50:07.454Z,100578.09
2023-05-06T19:53:09.392Z,100576.97
2023-05-06T19:56:12.620Z,100576.78
2023-05-06T19:59:14.619Z,100581.81
2023-05-06T20:02:16.895Z,100582.63
2023-05-06T20:05:19.016Z,100578.16
2023-05-06T20:08:20.798Z,100584.59
2023-05-06T20:11:23.072Z,100582.00
2023-05-06T20:14:25.075Z,100584.06
2023-05-06T20:17:27.184Z,100589.56
2023-05-06T20:20:34.252Z,100593.88
2023-05-06T20:23:36.269Z,100591.84
2023-05-06T20:26:38.071Z,100584.34
2023-05-06T20:29:40.038Z,100594.66
2023-05-06T20:32:41.989Z,100588.12
2023-05-06T20:35:43.706Z,100588.25
2023-05-06T20:38:46.273Z,100587.97
2023-05-06T20:41:48.206Z,100588.75
2023-05-06T20:44:53.284Z,100577.25
2023-05-06T20:47:55.173Z,100587.41
2023-05-06T20:50:57.895Z,100590.19
2023-05-06T20:54:01.052Z,100584.62
2023-05-06T20:57:03.055Z,100587.50
2023-05-06T21:00:07.777Z,100594.69
2023-05-06T21:03:09.679Z,100589.06
2023-05-06T21:06:12.608Z,100564.00
2023-05-06T21:09:14.340Z,100580.47
2023-05-06T21:12:16.392Z,100573.72
2023-05-06T21:15:18.299Z,100564.12
2023-05-06T21:18:20.468Z,100564.00
2023-05-06T21:21:25.587Z,100561.88
2023-05-06T21:24:27.378Z,100558.72
2023-05-06T21:27:29.090Z,100570.25
2023-05-06T21:30:31.233Z,100550.47
2023-05-06T21:33:33.380Z,100560.94
2023-05-06T21:36:36.280Z,100561.63
2023-05-06T21:39:38.354Z,100555.31
2023-05-06T21:42:40.230Z,100556.47
2023-05-06T21:45:42.002Z,100555.78
2023-05-06T21:48:43.741Z,100565.09
2023-05-06T21:51:45.515Z,100556.75
2023-05-06T21:54:47.472Z,100553.47
2023-05-06T21:57:49.397Z,100551.75
2023-05-06T22:00:52.317Z,100556.16
2023-05-06T22:03:54.284Z,100558.50
2023-05-06T22:06:56.937Z,100568.59
2023-05-06T22:09:58.746Z,100571.28
2023-05-06T22:13:00.758Z,100567.13
2023-05-06T22:16:04.140Z,100567.38
2023-05-06T22:19:06.747Z,100564.06
2023-05-06T22:22:09.146Z,100559.53
2023-05-06T22:25:11.377Z,100565.16
2023-05-06T22:28:13.637Z,100563.44
2023-05-06T22:31:15.627Z,100559.78
2023-05-06T22:34:17.841Z,100553.50
2023-05-06T22:37:19.792Z,100561.38
2023-05-06T22:40:21.638Z,100573.03
2023-05-06T22:43:23.399Z,100573.53
2023-05-06T22:46:25.964Z,100565.16
2023-05-06T22:49:28.775Z,100558.31
2023-05-06T22:52:30.643Z,100568.25
2023-05-06T22:55:32.666Z,100561.72
2023-05-06T22:58:34.487Z,100560.00
2023-05-06T23:01:36.382Z,100566.37
2023-05-06T23:04:38.978Z,100562.22
2023-05-06T23:07:40.944Z,100572.28
2023-05-06T23:10:43.091Z,100576.91
2023-05-06T23:13:45.004Z,100579.37
2023-05-06T23:16:47.036Z,100580.81
2023-05-06T23:19:48.793Z,100571.94
2023-05-06T23:22:50.693Z,100566.88
2023-05-06T23:25:53.338Z,100576.78
2023-05-06T23:28:55.157Z,100570.19
2023-05-06T23:31:57.236Z,100576.84
2023-05-06T23:34:59.169Z,100570.19
2023-05-06T23:38:01.003Z,100579.91
2023-05-06T23:41:02.754Z,100577.78
2023-05-06T23:44:04.828Z,100578.03
2023-05-06T23:47:06.582Z,100568.47
2023-05-06T23:50:08.951Z,100563.16
2023-05-06T23:53:11.551Z,100570.34
2023-05-06T23:56:13.350Z,100567.56
2023-05-06T23:59:15.266Z,100558.72
